sensor_id;sensor_type;location;lat;lon;timestamp;P1;durP1;ratioP1;P2;durP2;ratioP2
67839;SDS011;54636;51.684;5.142;2023-06-14T00:02:02;8.15;;;2.80;;
67839;SDS011;54636;51.684;5.142;2023-06-14T00:04:28;5.47;;;2.90;;
67839;SDS011;54636;51.684;5.142;2023-06-14T00:06:53;3.17;;;2.90;;
67839;SDS011;54636;51.684;5.142;2023-06-14T00:09:21;9.82;;;2.85;;
67839;SDS011;54636;51.684;5.142;2023-06-14T00:11:47;3.45;;;2.78;;
67839;SDS011;54636;51.684;5.142;2023-06-14T00:14:12;3.80;;;2.90;;
67839;SDS011;54636;51.684;5.142;2023-06-14T00:16:39;6.07;;;3.03;;
67839;SDS011;54636;51.684;5.142;2023-06-14T00:19:07;5.27;;;3.37;;
67839;SDS011;54636;51.684;5.142;2023-06-14T00:21:35;8.02;;;3.28;;
67839;SDS011;54636;51.684;5.142;2023-06-14T00:24:01;6.47;;;3.40;;
67839;SDS011;54636;51.684;5.142;2023-06-14T00:26:27;7.40;;;3.05;;
67839;SDS011;54636;51.684;5.142;2023-06-14T00:28:53;3.50;;;3.20;;
67839;SDS011;54636;51.684;5.142;2023-06-14T00:31:22;8.45;;;4.00;;
67839;SDS011;54636;51.684;5.142;2023-06-14T00:33:47;8.43;;;3.50;;
67839;SDS011;54636;51.684;5.142;2023-06-14T00:36:13;4.18;;;3.25;;
67839;SDS011;54636;51.684;5.142;2023-06-14T00:38:38;6.63;;;3.38;;
67839;SDS011;54636;51.684;5.142;2023-06-14T00:41:04;6.05;;;2.83;;
67839;SDS011;54636;51.684;5.142;2023-06-14T00:43:30;5.97;;;3.30;;
67839;SDS011;54636;51.684;5.142;2023-06-14T00:45:55;6.78;;;3.30;;
67839;SDS011;54636;51.684;5.142;2023-06-14T00:48:20;8.90;;;3.60;;
67839;SDS011;54636;51.684;5.142;2023-06-14T00:50:47;9.05;;;3.22;;
67839;SDS011;54636;51.684;5.142;2023-06-14T00:53:15;4.93;;;2.90;;
67839;SDS011;54636;51.684;5.142;2023-06-14T00:55:42;7.05;;;3.17;;
67839;SDS011;54636;51.684;5.142;2023-06-14T00:58:08;9.32;;;3.30;;
67839;SDS011;54636;51.684;5.142;2023-06-14T01:00:34;7.25;;;3.20;;
67839;SDS011;54636;51.684;5.142;2023-06-14T01:03:00;7.38;;;2.97;;
67839;SDS011;54636;51.684;5.142;2023-06-14T01:05:26;4.55;;;3.35;;
67839;SDS011;54636;51.684;5.142;2023-06-14T01:08:12;6.88;;;3.05;;
67839;SDS011;54636;51.684;5.142;2023-06-14T01:13:27;8.63;;;3.30;;
67839;SDS011;54636;51.684;5.142;2023-06-14T01:15:57;8.40;;;3.47;;
67839;SDS011;54636;51.684;5.142;2023-06-14T01:18:23;12.52;;;3.40;;
67839;SDS011;54636;51.684;5.142;2023-06-14T01:20:49;4.35;;;3.08;;
67839;SDS011;54636;51.684;5.142;2023-06-14T01:23:21;3.65;;;3.17;;
67839;SDS011;54636;51.684;5.142;2023-06-14T01:25:48;3.90;;;2.88;;
67839;SDS011;54636;51.684;5.142;2023-06-14T01:30:44;11.02;;;2.97;;
67839;SDS011;54636;51.684;5.142;2023-06-14T01:33:24;3.33;;;2.92;;
67839;SDS011;54636;51.684;5.142;2023-06-14T01:35:52;2.83;;;2.60;;
67839;SDS011;54636;51.684;5.142;2023-06-14T01:38:20;5.88;;;2.75;;
67839;SDS011;54636;51.684;5.142;2023-06-14T01:40:48;5.30;;;2.60;;
67839;SDS011;54636;51.684;5.142;2023-06-14T01:43:15;11.05;;;3.67;;
67839;SDS011;54636;51.684;5.142;2023-06-14T01:45:42;3.10;;;2.88;;
67839;SDS011;54636;51.684;5.142;2023-06-14T01:48:09;5.10;;;2.85;;
67839;SDS011;54636;51.684;5.142;2023-06-14T01:50:35;5.35;;;3.10;;
67839;SDS011;54636;51.684;5.142;2023-06-14T01:53:00;6.00;;;2.92;;
67839;SDS011;54636;51.684;5.142;2023-06-14T01:55:26;5.85;;;2.97;;
67839;SDS011;54636;51.684;5.142;2023-06-14T01:57:52;8.73;;;3.00;;
67839;SDS011;54636;51.684;5.142;2023-06-14T02:00:18;8.38;;;2.90;;
67839;SDS011;54636;51.684;5.142;2023-06-14T02:02:47;8.65;;;3.47;;
67839;SDS011;54636;51.684;5.142;2023-06-14T02:05:12;9.40;;;2.80;;
67839;SDS011;54636;51.684;5.142;2023-06-14T02:07:38;5.88;;;2.47;;
67839;SDS011;54636;51.684;5.142;2023-06-14T02:10:04;6.75;;;3.47;;
67839;SDS011;54636;51.684;5.142;2023-06-14T02:12:30;7.45;;;3.22;;
67839;SDS011;54636;51.684;5.142;2023-06-14T02:14:55;4.55;;;2.85;;
67839;SDS011;54636;51.684;5.142;2023-06-14T02:17:21;4.13;;;2.97;;
67839;SDS011;54636;51.684;5.142;2023-06-14T02:19:47;3.90;;;2.88;;
67839;SDS011;54636;51.684;5.142;2023-06-14T02:22:13;7.60;;;3.00;;
67839;SDS011;54636;51.684;5.142;2023-06-14T02:24:40;6.47;;;3.08;;
67839;SDS011;54636;51.684;5.142;2023-06-14T02:27:05;5.85;;;2.80;;
67839;SDS011;54636;51.684;5.142;2023-06-14T02:29:31;9.95;;;3.13;;
67839;SDS011;54636;51.684;5.142;2023-06-14T02:31:57;9.18;;;2.55;;
67839;SDS011;54636;51.684;5.142;2023-06-14T02:34:22;5.55;;;3.35;;
67839;SDS011;54636;51.684;5.142;2023-06-14T02:36:48;5.55;;;3.15;;
67839;SDS011;54636;51.684;5.142;2023-06-14T02:39:13;4.60;;;2.60;;
67839;SDS011;54636;51.684;5.142;2023-06-14T02:41:39;6.43;;;2.85;;
67839;SDS011;54636;51.684;5.142;2023-06-14T02:44:05;3.15;;;2.85;;
67839;SDS011;54636;51.684;5.142;2023-06-14T02:46:31;4.97;;;3.05;;
67839;SDS011;54636;51.684;5.142;2023-06-14T02:48:57;6.00;;;3.08;;
67839;SDS011;54636;51.684;5.142;2023-06-14T02:51:22;4.28;;;3.10;;
67839;SDS011;54636;51.684;5.142;2023-06-14T02:53:47;12.30;;;2.63;;
67839;SDS011;54636;51.684;5.142;2023-06-14T02:56:13;2.88;;;2.60;;
67839;SDS011;54636;51.684;5.142;2023-06-14T02:58:38;3.00;;;2.72;;
67839;SDS011;54636;51.684;5.142;2023-06-14T03:01:04;5.32;;;2.70;;
67839;SDS011;54636;51.684;5.142;2023-06-14T03:03:33;6.28;;;2.60;;
67839;SDS011;54636;51.684;5.142;2023-06-14T03:05:58;5.95;;;2.95;;
67839;SDS011;54636;51.684;5.142;2023-06-14T03:08:30;4.97;;;2.83;;
67839;SDS011;54636;51.684;5.142;2023-06-14T03:10:56;6.13;;;2.70;;
67839;SDS011;54636;51.684;5.142;2023-06-14T03:13:22;8.73;;;3.13;;
67839;SDS011;54636;51.684;5.142;2023-06-14T03:15:48;7.25;;;3.22;;
67839;SDS011;54636;51.684;5.142;2023-06-14T03:18:16;2.90;;;2.63;;
67839;SDS011;54636;51.684;5.142;2023-06-14T03:20:41;9.52;;;3.08;;
67839;SDS011;54636;51.684;5.142;2023-06-14T03:23:08;6.95;;;3.45;;
67839;SDS011;54636;51.684;5.142;2023-06-14T03:25:33;4.95;;;2.70;;
67839;SDS011;54636;51.684;5.142;2023-06-14T03:28:01;13.45;;;2.90;;
67839;SDS011;54636;51.684;5.142;2023-06-14T03:30:29;7.63;;;3.30;;
67839;SDS011;54636;51.684;5.142;2023-06-14T03:32:55;4.07;;;2.85;;
67839;SDS011;54636;51.684;5.142;2023-06-14T03:35:22;9.85;;;2.92;;
67839;SDS011;54636;51.684;5.142;2023-06-14T03:37:48;4.10;;;2.80;;
67839;SDS011;54636;51.684;5.142;2023-06-14T03:40:14;6.63;;;3.00;;
67839;SDS011;54636;51.684;5.142;2023-06-14T03:42:41;5.90;;;2.70;;
67839;SDS011;54636;51.684;5.142;2023-06-14T03:45:06;8.63;;;3.28;;
67839;SDS011;54636;51.684;5.142;2023-06-14T03:47:34;2.70;;;2.50;;
67839;SDS011;54636;51.684;5.142;2023-06-14T03:50:00;8.15;;;2.65;;
67839;SDS011;54636;51.684;5.142;2023-06-14T03:52:26;10.43;;;3.28;;
67839;SDS011;54636;51.684;5.142;2023-06-14T03:54:52;8.00;;;3.13;;
67839;SDS011;54636;51.684;5.142;2023-06-14T03:57:18;8.10;;;3.78;;
67839;SDS011;54636;51.684;5.142;2023-06-14T03:59:43;4.18;;;2.80;;
67839;SDS011;54636;51.684;5.142;2023-06-14T04:02:09;7.53;;;2.50;;
67839;SDS011;54636;51.684;5.142;2023-06-14T04:04:35;6.88;;;2.50;;
67839;SDS011;54636;51.684;5.142;2023-06-14T04:07:01;9.25;;;3.10;;
67839;SDS011;54636;51.684;5.142;2023-06-14T04:09:31;11.77;;;3.03;;
67839;SDS011;54636;51.684;5.142;2023-06-14T04:11:56;7.07;;;2.95;;
67839;SDS011;54636;51.684;5.142;2023-06-14T04:14:22;10.65;;;2.90;;
67839;SDS011;54636;51.684;5.142;2023-06-14T04:16:48;5.85;;;2.50;;
67839;SDS011;54636;51.684;5.142;2023-06-14T04:19:17;2.92;;;2.72;;
67839;SDS011;54636;51.684;5.142;2023-06-14T04:21:43;6.82;;;2.72;;
67839;SDS011;54636;51.684;5.142;2023-06-14T04:24:08;5.90;;;2.80;;
67839;SDS011;54636;51.684;5.142;2023-06-14T04:26:39;3.00;;;2.30;;
67839;SDS011;54636;51.684;5.142;2023-06-14T04:29:05;4.60;;;2.55;;
67839;SDS011;54636;51.684;5.142;2023-06-14T04:31:31;3.97;;;2.67;;
67839;SDS011;54636;51.684;5.142;2023-06-14T04:34:02;7.05;;;2.75;;
67839;SDS011;54636;51.684;5.142;2023-06-14T04:36:31;5.40;;;2.92;;
67839;SDS011;54636;51.684;5.142;2023-06-14T04:39:06;3.85;;;2.60;;
67839;SDS011;54636;51.684;5.142;2023-06-14T04:41:31;5.35;;;2.55;;
67839;SDS011;54636;51.684;5.142;2023-06-14T04:43:57;10.85;;;2.65;;
67839;SDS011;54636;51.684;5.142;2023-06-14T04:46:26;8.43;;;2.38;;
67839;SDS011;54636;51.684;5.142;2023-06-14T04:48:57;3.15;;;2.60;;
67839;SDS011;54636;51.684;5.142;2023-06-14T04:51:22;11.95;;;2.45;;
67839;SDS011;54636;51.684;5.142;2023-06-14T04:53:55;8.23;;;2.70;;
67839;SDS011;54636;51.684;5.142;2023-06-14T04:56:26;3.38;;;2.65;;
67839;SDS011;54636;51.684;5.142;2023-06-14T04:58:52;11.13;;;2.70;;
67839;SDS011;54636;51.684;5.142;2023-06-14T05:01:18;3.72;;;2.72;;
67839;SDS011;54636;51.684;5.142;2023-06-14T05:03:44;9.68;;;2.60;;
67839;SDS011;54636;51.684;5.142;2023-06-14T05:06:10;10.63;;;2.78;;
67839;SDS011;54636;51.684;5.142;2023-06-14T05:08:37;8.07;;;2.83;;
67839;SDS011;54636;51.684;5.142;2023-06-14T05:11:02;4.47;;;2.95;;
67839;SDS011;54636;51.684;5.142;2023-06-14T05:13:28;5.57;;;2.50;;
67839;SDS011;54636;51.684;5.142;2023-06-14T05:15:53;8.65;;;2.65;;
67839;SDS011;54636;51.684;5.142;2023-06-14T05:18:19;8.20;;;3.13;;
67839;SDS011;54636;51.684;5.142;2023-06-14T05:20:45;5.88;;;2.72;;
67839;SDS011;54636;51.684;5.142;2023-06-14T05:23:11;6.93;;;2.60;;
67839;SDS011;54636;51.684;5.142;2023-06-14T05:25:41;5.50;;;3.00;;
67839;SDS011;54636;51.684;5.142;2023-06-14T05:28:10;3.92;;;2.53;;
67839;SDS011;54636;51.684;5.142;2023-06-14T05:30:37;6.68;;;2.95;;
67839;SDS011;54636;51.684;5.142;2023-06-14T05:33:03;13.05;;;3.03;;
67839;SDS011;54636;51.684;5.142;2023-06-14T05:35:29;5.15;;;2.80;;
67839;SDS011;54636;51.684;5.142;2023-06-14T05:37:54;10.18;;;3.00;;
67839;SDS011;54636;51.684;5.142;2023-06-14T05:40:20;5.55;;;2.67;;
67839;SDS011;54636;51.684;5.142;2023-06-14T05:42:45;9.27;;;2.72;;
67839;SDS011;54636;51.684;5.142;2023-06-14T05:45:11;6.50;;;2.30;;
67839;SDS011;54636;51.684;5.142;2023-06-14T05:47:36;7.45;;;2.75;;
67839;SDS011;54636;51.684;5.142;2023-06-14T05:50:02;6.25;;;2.97;;
67839;SDS011;54636;51.684;5.142;2023-06-14T05:52:27;8.50;;;3.03;;
67839;SDS011;54636;51.684;5.142;2023-06-14T05:54:54;5.72;;;3.22;;
67839;SDS011;54636;51.684;5.142;2023-06-14T05:57:20;8.35;;;3.15;;
67839;SDS011;54636;51.684;5.142;2023-06-14T05:59:45;7.50;;;3.20;;
67839;SDS011;54636;51.684;5.142;2023-06-14T06:02:11;11.43;;;3.25;;
67839;SDS011;54636;51.684;5.142;2023-06-14T06:04:36;6.85;;;2.78;;
67839;SDS011;54636;51.684;5.142;2023-06-14T06:07:02;9.55;;;3.28;;
67839;SDS011;54636;51.684;5.142;2023-06-14T06:09:28;13.30;;;3.40;;
67839;SDS011;54636;51.684;5.142;2023-06-14T06:11:54;7.85;;;2.63;;
67839;SDS011;54636;51.684;5.142;2023-06-14T06:14:19;12.07;;;3.33;;
67839;SDS011;54636;51.684;5.142;2023-06-14T06:16:45;11.52;;;3.30;;
67839;SDS011;54636;51.684;5.142;2023-06-14T06:19:10;6.22;;;2.95;;
67839;SDS011;54636;51.684;5.142;2023-06-14T06:21:35;5.50;;;2.80;;
67839;SDS011;54636;51.684;5.142;2023-06-14T06:24:01;6.40;;;3.33;;
67839;SDS011;54636;51.684;5.142;2023-06-14T06:26:28;3.25;;;2.85;;
67839;SDS011;54636;51.684;5.142;2023-06-14T06:28:54;5.18;;;3.47;;
67839;SDS011;54636;51.684;5.142;2023-06-14T06:31:20;5.45;;;3.20;;
67839;SDS011;54636;51.684;5.142;2023-06-14T06:33:47;8.52;;;3.45;;
67839;SDS011;54636;51.684;5.142;2023-06-14T06:36:12;7.13;;;3.33;;
67839;SDS011;54636;51.684;5.142;2023-06-14T06:38:37;3.47;;;3.03;;
67839;SDS011;54636;51.684;5.142;2023-06-14T06:41:03;15.73;;;3.33;;
67839;SDS011;54636;51.684;5.142;2023-06-14T06:43:28;3.90;;;3.25;;
67839;SDS011;54636;51.684;5.142;2023-06-14T06:45:54;7.18;;;3.20;;
67839;SDS011;54636;51.684;5.142;2023-06-14T06:48:19;8.90;;;3.00;;
67839;SDS011;54636;51.684;5.142;2023-06-14T06:50:45;8.90;;;2.72;;
67839;SDS011;54636;51.684;5.142;2023-06-14T06:53:10;6.13;;;2.47;;
67839;SDS011;54636;51.684;5.142;2023-06-14T06:55:35;6.00;;;2.53;;
67839;SDS011;54636;51.684;5.142;2023-06-14T06:58:01;4.93;;;2.45;;
67839;SDS011;54636;51.684;5.142;2023-06-14T07:00:29;3.80;;;2.90;;
67839;SDS011;54636;51.684;5.142;2023-06-14T07:02:55;6.15;;;2.72;;
67839;SDS011;54636;51.684;5.142;2023-06-14T07:05:20;7.03;;;2.72;;
67839;SDS011;54636;51.684;5.142;2023-06-14T07:07:45;6.57;;;2.88;;
67839;SDS011;54636;51.684;5.142;2023-06-14T07:10:11;10.27;;;2.70;;
67839;SDS011;54636;51.684;5.142;2023-06-14T07:12:36;6.72;;;2.20;;
67839;SDS011;54636;51.684;5.142;2023-06-14T07:15:04;3.10;;;2.50;;
67839;SDS011;54636;51.684;5.142;2023-06-14T07:17:36;5.65;;;3.13;;
67839;SDS011;54636;51.684;5.142;2023-06-14T07:20:02;7.72;;;2.88;;
67839;SDS011;54636;51.684;5.142;2023-06-14T07:22:33;5.30;;;2.90;;
67839;SDS011;54636;51.684;5.142;2023-06-14T07:24:58;3.08;;;2.75;;
67839;SDS011;54636;51.684;5.142;2023-06-14T07:27:23;11.02;;;2.65;;
67839;SDS011;54636;51.684;5.142;2023-06-14T07:29:49;8.13;;;3.08;;
67839;SDS011;54636;51.684;5.142;2023-06-14T07:32:14;8.10;;;2.30;;
67839;SDS011;54636;51.684;5.142;2023-06-14T07:34:40;2.70;;;2.50;;
67839;SDS011;54636;51.684;5.142;2023-06-14T07:37:05;3.80;;;3.08;;
67839;SDS011;54636;51.684;5.142;2023-06-14T07:39:31;13.50;;;2.80;;
67839;SDS011;54636;51.684;5.142;2023-06-14T07:41:56;4.38;;;2.80;;
67839;SDS011;54636;51.684;5.142;2023-06-14T07:44:21;7.28;;;3.10;;
67839;SDS011;54636;51.684;5.142;2023-06-14T07:46:47;12.35;;;2.67;;
67839;SDS011;54636;51.684;5.142;2023-06-14T07:49:14;2.88;;;2.67;;
67839;SDS011;54636;51.684;5.142;2023-06-14T07:51:40;3.40;;;2.72;;
67839;SDS011;54636;51.684;5.142;2023-06-14T07:54:05;8.65;;;3.47;;
67839;SDS011;54636;51.684;5.142;2023-06-14T07:56:32;8.95;;;2.97;;
67839;SDS011;54636;51.684;5.142;2023-06-14T07:58:58;5.15;;;3.08;;
67839;SDS011;54636;51.684;5.142;2023-06-14T08:01:23;11.30;;;2.63;;
67839;SDS011;54636;51.684;5.142;2023-06-14T08:03:50;8.13;;;2.72;;
67839;SDS011;54636;51.684;5.142;2023-06-14T08:06:15;14.55;;;2.78;;
67839;SDS011;54636;51.684;5.142;2023-06-14T08:08:41;4.47;;;2.90;;
67839;SDS011;54636;51.684;5.142;2023-06-14T08:11:06;8.00;;;2.88;;
67839;SDS011;54636;51.684;5.142;2023-06-14T08:13:32;8.05;;;3.13;;
67839;SDS011;54636;51.684;5.142;2023-06-14T08:15:57;13.00;;;2.95;;
67839;SDS011;54636;51.684;5.142;2023-06-14T08:18:23;11.70;;;2.88;;
67839;SDS011;54636;51.684;5.142;2023-06-14T08:20:49;9.20;;;3.03;;
67839;SDS011;54636;51.684;5.142;2023-06-14T08:23:15;5.63;;;2.63;;
67839;SDS011;54636;51.684;5.142;2023-06-14T08:25:44;7.70;;;3.05;;
67839;SDS011;54636;51.684;5.142;2023-06-14T08:28:09;6.47;;;2.92;;
67839;SDS011;54636;51.684;5.142;2023-06-14T08:30:35;8.50;;;3.03;;
67839;SDS011;54636;51.684;5.142;2023-06-14T08:33:00;7.68;;;2.90;;
67839;SDS011;54636;51.684;5.142;2023-06-14T08:35:26;13.32;;;2.83;;
67839;SDS011;54636;51.684;5.142;2023-06-14T08:37:51;7.15;;;2.03;;
67839;SDS011;54636;51.684;5.142;2023-06-14T08:40:23;5.55;;;2.50;;
67839;SDS011;54636;51.684;5.142;2023-06-14T08:42:52;5.88;;;2.15;;
67839;SDS011;54636;51.684;5.142;2023-06-14T08:45:20;8.13;;;2.30;;
67839;SDS011;54636;51.684;5.142;2023-06-14T08:47:46;13.18;;;2.85;;
67839;SDS011;54636;51.684;5.142;2023-06-14T08:50:20;11.30;;;2.60;;
67839;SDS011;54636;51.684;5.142;2023-06-14T08:52:48;4.53;;;2.53;;
67839;SDS011;54636;51.684;5.142;2023-06-14T08:55:18;4.88;;;2.15;;
67839;SDS011;54636;51.684;5.142;2023-06-14T08:57:46;3.65;;;2.47;;
67839;SDS011;54636;51.684;5.142;2023-06-14T09:00:13;5.32;;;2.47;;
67839;SDS011;54636;51.684;5.142;2023-06-14T09:02:39;8.05;;;2.65;;
67839;SDS011;54636;51.684;5.142;2023-06-14T09:05:11;7.97;;;2.20;;
67839;SDS011;54636;51.684;5.142;2023-06-14T09:07:38;8.75;;;3.00;;
67839;SDS011;54636;51.684;5.142;2023-06-14T09:10:07;4.35;;;1.92;;
67839;SDS011;54636;51.684;5.142;2023-06-14T09:12:37;2.38;;;1.88;;
67839;SDS011;54636;51.684;5.142;2023-06-14T09:15:06;5.13;;;1.67;;
67839;SDS011;54636;51.684;5.142;2023-06-14T09:17:34;13.45;;;2.45;;
67839;SDS011;54636;51.684;5.142;2023-06-14T09:22:32;5.90;;;2.50;;
67839;SDS011;54636;51.684;5.142;2023-06-14T09:24:58;7.75;;;1.80;;
67839;SDS011;54636;51.684;5.142;2023-06-14T09:27:27;5.32;;;1.90;;
67839;SDS011;54636;51.684;5.142;2023-06-14T09:29:53;6.55;;;3.92;;
67839;SDS011;54636;51.684;5.142;2023-06-14T09:32:20;4.13;;;2.10;;
67839;SDS011;54636;51.684;5.142;2023-06-14T09:34:47;2.40;;;1.80;;
67839;SDS011;54636;51.684;5.142;2023-06-14T09:37:12;3.90;;;1.80;;
67839;SDS011;54636;51.684;5.142;2023-06-14T09:39:59;7.45;;;1.52;;
67839;SDS011;54636;51.684;5.142;2023-06-14T09:42:24;1.55;;;1.50;;
67839;SDS011;54636;51.684;5.142;2023-06-14T09:44:55;10.35;;;2.00;;
67839;SDS011;54636;51.684;5.142;2023-06-14T09:47:22;7.10;;;2.30;;
67839;SDS011;54636;51.684;5.142;2023-06-14T09:49:50;5.10;;;1.70;;
67839;SDS011;54636;51.684;5.142;2023-06-14T09:52:17;1.83;;;1.58;;
67839;SDS011;54636;51.684;5.142;2023-06-14T09:54:44;2.72;;;1.40;;
67839;SDS011;54636;51.684;5.142;2023-06-14T09:57:20;4.45;;;1.58;;
67839;SDS011;54636;51.684;5.142;2023-06-14T09:59:48;2.17;;;1.42;;
67839;SDS011;54636;51.684;5.142;2023-06-14T10:02:28;1.85;;;1.50;;
67839;SDS011;54636;51.684;5.142;2023-06-14T10:05:04;2.75;;;1.08;;
67839;SDS011;54636;51.684;5.142;2023-06-14T10:07:32;3.80;;;1.30;;
67839;SDS011;54636;51.684;5.142;2023-06-14T10:10:00;6.30;;;1.30;;
67839;SDS011;54636;51.684;5.142;2023-06-14T10:12:26;2.10;;;1.48;;
67839;SDS011;54636;51.684;5.142;2023-06-14T10:14:52;1.67;;;1.40;;
67839;SDS011;54636;51.684;5.142;2023-06-14T10:17:24;3.22;;;1.27;;
67839;SDS011;54636;51.684;5.142;2023-06-14T10:20:10;1.48;;;1.38;;
67839;SDS011;54636;51.684;5.142;2023-06-14T10:22:47;3.67;;;1.23;;
67839;SDS011;54636;51.684;5.142;2023-06-14T10:25:26;3.05;;;1.13;;
67839;SDS011;54636;51.684;5.142;2023-06-14T10:31:05;1.10;;;1.10;;
67839;SDS011;54636;51.684;5.142;2023-06-14T10:33:36;4.03;;;1.23;;
67839;SDS011;54636;51.684;5.142;2023-06-14T10:38:56;2.90;;;1.38;;
67839;SDS011;54636;51.684;5.142;2023-06-14T10:41:28;3.53;;;1.77;;
67839;SDS011;54636;51.684;5.142;2023-06-14T10:46:39;4.47;;;1.60;;
67839;SDS011;54636;51.684;5.142;2023-06-14T10:49:05;1.50;;;1.33;;
67839;SDS011;54636;51.684;5.142;2023-06-14T10:51:44;13.05;;;2.33;;
67839;SDS011;54636;51.684;5.142;2023-06-14T10:54:22;5.32;;;1.70;;
67839;SDS011;54636;51.684;5.142;2023-06-14T10:56:50;1.60;;;1.42;;
67839;SDS011;54636;51.684;5.142;2023-06-14T10:59:17;1.50;;;1.40;;
67839;SDS011;54636;51.684;5.142;2023-06-14T11:01:55;1.42;;;1.10;;
67839;SDS011;54636;51.684;5.142;2023-06-14T11:04:48;3.55;;;1.38;;
67839;SDS011;54636;51.684;5.142;2023-06-14T11:10:39;5.03;;;1.60;;
67839;SDS011;54636;51.684;5.142;2023-06-14T11:13:09;2.53;;;1.38;;
67839;SDS011;54636;51.684;5.142;2023-06-14T11:15:37;3.80;;;1.17;;
67839;SDS011;54636;51.684;5.142;2023-06-14T11:20:30;1.13;;;1.02;;
67839;SDS011;54636;51.684;5.142;2023-06-14T11:22:58;8.15;;;1.80;;
67839;SDS011;54636;51.684;5.142;2023-06-14T11:25:24;7.15;;;2.08;;
67839;SDS011;54636;51.684;5.142;2023-06-14T11:27:51;3.03;;;1.38;;
67839;SDS011;54636;51.684;5.142;2023-06-14T11:30:17;2.13;;;1.40;;
67839;SDS011;54636;51.684;5.142;2023-06-14T11:32:45;6.25;;;1.52;;
67839;SDS011;54636;51.684;5.142;2023-06-14T11:35:12;6.00;;;1.40;;
67839;SDS011;54636;51.684;5.142;2023-06-14T11:37:38;1.70;;;1.40;;
67839;SDS011;54636;51.684;5.142;2023-06-14T11:40:06;2.35;;;1.40;;
67839;SDS011;54636;51.684;5.142;2023-06-14T11:42:38;2.03;;;1.67;;
67839;SDS011;54636;51.684;5.142;2023-06-14T11:45:07;5.35;;;1.60;;
67839;SDS011;54636;51.684;5.142;2023-06-14T11:47:37;6.75;;;1.13;;
67839;SDS011;54636;51.684;5.142;2023-06-14T11:50:05;6.75;;;1.30;;
67839;SDS011;54636;51.684;5.142;2023-06-14T11:52:32;1.88;;;1.30;;
67839;SDS011;54636;51.684;5.142;2023-06-14T11:54:58;2.05;;;1.27;;
67839;SDS011;54636;51.684;5.142;2023-06-14T11:57:24;1.85;;;1.20;;
67839;SDS011;54636;51.684;5.142;2023-06-14T11:59:50;6.18;;;1.50;;
67839;SDS011;54636;51.684;5.142;2023-06-14T12:02:16;3.85;;;1.40;;
67839;SDS011;54636;51.684;5.142;2023-06-14T12:04:51;4.47;;;1.42;;
67839;SDS011;54636;51.684;5.142;2023-06-14T12:07:17;6.45;;;1.50;;
67839;SDS011;54636;51.684;5.142;2023-06-14T12:12:20;2.72;;;1.75;;
67839;SDS011;54636;51.684;5.142;2023-06-14T12:14:46;1.38;;;1.23;;
67839;SDS011;54636;51.684;5.142;2023-06-14T12:17:13;1.55;;;1.20;;
67839;SDS011;54636;51.684;5.142;2023-06-14T12:19:41;5.90;;;1.67;;
67839;SDS011;54636;51.684;5.142;2023-06-14T12:22:11;4.32;;;1.30;;
67839;SDS011;54636;51.684;5.142;2023-06-14T12:24:38;2.72;;;1.50;;
67839;SDS011;54636;51.684;5.142;2023-06-14T12:27:04;3.97;;;1.80;;
67839;SDS011;54636;51.684;5.142;2023-06-14T12:29:30;2.65;;;1.20;;
67839;SDS011;54636;51.684;5.142;2023-06-14T12:31:57;5.85;;;1.63;;
67839;SDS011;54636;51.684;5.142;2023-06-14T12:34:23;6.93;;;1.35;;
67839;SDS011;54636;51.684;5.142;2023-06-14T12:36:52;3.60;;;1.52;;
67839;SDS011;54636;51.684;5.142;2023-06-14T12:39:21;6.00;;;1.60;;
67839;SDS011;54636;51.684;5.142;2023-06-14T12:41:47;4.53;;;1.42;;
67839;SDS011;54636;51.684;5.142;2023-06-14T12:44:13;7.43;;;1.45;;
67839;SDS011;54636;51.684;5.142;2023-06-14T12:46:39;3.53;;;1.27;;
67839;SDS011;54636;51.684;5.142;2023-06-14T12:49:07;4.25;;;1.50;;
67839;SDS011;54636;51.684;5.142;2023-06-14T12:51:34;3.67;;;1.50;;
67839;SDS011;54636;51.684;5.142;2023-06-14T12:53:59;3.58;;;1.60;;
67839;SDS011;54636;51.684;5.142;2023-06-14T12:56:25;1.42;;;1.17;;
67839;SDS011;54636;51.684;5.142;2023-06-14T12:58:51;7.25;;;1.80;;
67839;SDS011;54636;51.684;5.142;2023-06-14T13:01:17;5.57;;;1.60;;
67839;SDS011;54636;51.684;5.142;2023-06-14T13:03:42;2.60;;;1.42;;
67839;SDS011;54636;51.684;5.142;2023-06-14T13:06:08;8.57;;;1.50;;
67839;SDS011;54636;51.684;5.142;2023-06-14T13:08:33;1.38;;;1.30;;
67839;SDS011;54636;51.684;5.142;2023-06-14T13:10:58;4.70;;;1.42;;
67839;SDS011;54636;51.684;5.142;2023-06-14T13:13:24;2.05;;;1.52;;
67839;SDS011;54636;51.684;5.142;2023-06-14T13:15:49;2.25;;;1.30;;
67839;SDS011;54636;51.684;5.142;2023-06-14T13:18:15;1.40;;;1.30;;
67839;SDS011;54636;51.684;5.142;2023-06-14T13:20:41;4.30;;;1.50;;
67839;SDS011;54636;51.684;5.142;2023-06-14T13:23:08;5.03;;;1.42;;
67839;SDS011;54636;51.684;5.142;2023-06-14T13:25:34;3.10;;;1.40;;
67839;SDS011;54636;51.684;5.142;2023-06-14T13:28:01;3.60;;;1.50;;
67839;SDS011;54636;51.684;5.142;2023-06-14T13:30:28;5.68;;;1.48;;
67839;SDS011;54636;51.684;5.142;2023-06-14T13:32:54;4.75;;;1.58;;
67839;SDS011;54636;51.684;5.142;2023-06-14T13:35:20;7.93;;;1.50;;
67839;SDS011;54636;51.684;5.142;2023-06-14T13:37:46;2.17;;;1.20;;
67839;SDS011;54636;51.684;5.142;2023-06-14T13:40:11;4.70;;;1.50;;
67839;SDS011;54636;51.684;5.142;2023-06-14T13:42:37;3.05;;;1.65;;
67839;SDS011;54636;51.684;5.142;2023-06-14T13:45:03;2.47;;;1.30;;
67839;SDS011;54636;51.684;5.142;2023-06-14T13:47:29;4.82;;;1.83;;
67839;SDS011;54636;51.684;5.142;2023-06-14T13:49:56;2.80;;;1.33;;
67839;SDS011;54636;51.684;5.142;2023-06-14T13:52:21;5.93;;;1.60;;
67839;SDS011;54636;51.684;5.142;2023-06-14T13:54:47;1.73;;;1.58;;
67839;SDS011;54636;51.684;5.142;2023-06-14T13:57:13;19.73;;;1.77;;
67839;SDS011;54636;51.684;5.142;2023-06-14T13:59:39;5.30;;;1.45;;
67839;SDS011;54636;51.684;5.142;2023-06-14T14:02:05;8.23;;;1.38;;
67839;SDS011;54636;51.684;5.142;2023-06-14T14:04:32;2.38;;;1.30;;
67839;SDS011;54636;51.684;5.142;2023-06-14T14:06:58;4.38;;;1.90;;
67839;SDS011;54636;51.684;5.142;2023-06-14T14:09:24;5.40;;;1.23;;
67839;SDS011;54636;51.684;5.142;2023-06-14T14:11:49;2.67;;;1.20;;
67839;SDS011;54636;51.684;5.142;2023-06-14T14:14:14;2.17;;;1.48;;
67839;SDS011;54636;51.684;5.142;2023-06-14T14:16:40;2.83;;;1.48;;
67839;SDS011;54636;51.684;5.142;2023-06-14T14:19:06;7.25;;;1.70;;
67839;SDS011;54636;51.684;5.142;2023-06-14T14:21:35;2.38;;;1.48;;
67839;SDS011;54636;51.684;5.142;2023-06-14T14:24:00;9.18;;;1.50;;
67839;SDS011;54636;51.684;5.142;2023-06-14T14:26:26;3.58;;;1.35;;
67839;SDS011;54636;51.684;5.142;2023-06-14T14:28:52;10.45;;;1.98;;
67839;SDS011;54636;51.684;5.142;2023-06-14T14:31:17;3.53;;;1.20;;
67839;SDS011;54636;51.684;5.142;2023-06-14T14:33:43;1.10;;;1.10;;
67839;SDS011;54636;51.684;5.142;2023-06-14T14:36:08;3.67;;;1.27;;
67839;SDS011;54636;51.684;5.142;2023-06-14T14:38:34;2.88;;;0.95;;
67839;SDS011;54636;51.684;5.142;2023-06-14T14:40:59;2.45;;;1.40;;
67839;SDS011;54636;51.684;5.142;2023-06-14T14:43:24;7.80;;;1.35;;
67839;SDS011;54636;51.684;5.142;2023-06-14T14:45:50;3.65;;;1.13;;
67839;SDS011;54636;51.684;5.142;2023-06-14T14:48:15;2.83;;;1.30;;
67839;SDS011;54636;51.684;5.142;2023-06-14T14:50:41;2.50;;;1.05;;
67839;SDS011;54636;51.684;5.142;2023-06-14T14:53:06;1.13;;;1.00;;
67839;SDS011;54636;51.684;5.142;2023-06-14T14:55:32;3.47;;;1.20;;
67839;SDS011;54636;51.684;5.142;2023-06-14T14:57:59;3.25;;;1.40;;
67839;SDS011;54636;51.684;5.142;2023-06-14T15:00:25;2.13;;;1.20;;
67839;SDS011;54636;51.684;5.142;2023-06-14T15:02:51;1.45;;;1.02;;
67839;SDS011;54636;51.684;5.142;2023-06-14T15:05:19;3.90;;;1.13;;
67839;SDS011;54636;51.684;5.142;2023-06-14T15:07:45;2.20;;;1.10;;
67839;SDS011;54636;51.684;5.142;2023-06-14T15:10:10;1.45;;;1.02;;